createdAt,value
2022-07-30T00:01:29.041Z,15.75
2022-07-30T00:04:00.998Z,14.70
2022-07-30T00:06:34.000Z,15.45
2022-07-30T00:09:06.237Z,14.48
2022-07-30T00:11:38.324Z,15.90
2022-07-30T00:14:10.020Z,14.25
2022-07-30T00:16:42.997Z,14.00
2022-07-30T00:19:14.680Z,14.13
2022-07-30T00:21:47.069Z,14.55
2022-07-30T00:24:19.247Z,12.57
2022-07-30T00:27:10.406Z,11.40
2022-07-30T00:30:21.556Z,12.57
2022-07-30T00:33:12.727Z,11.75
2022-07-30T00:36:33.659Z,12.60
2022-07-30T00:39:25.642Z,11.15
2022-07-30T00:52:42.055Z,11.68
2022-07-30T00:55:56.147Z,11.23
2022-07-30T00:58:50.791Z,10.88
2022-07-30T01:08:18.700Z,9.20
2022-07-30T01:11:36.231Z,10.25
2022-07-30T01:41:19.799Z,10.25
2022-07-30T01:44:57.183Z,9.93
2022-07-30T01:48:21.621Z,10.55
2022-07-30T02:04:22.873Z,7.82
2022-07-30T02:07:26.769Z,8.50
2022-07-30T02:10:48.153Z,7.35
2022-07-30T02:14:18.802Z,6.80
2022-07-30T02:30:30.259Z,6.65
2022-07-30T02:33:29.304Z,6.00
2022-07-30T02:36:04.997Z,5.95
2022-07-30T02:39:32.435Z,6.53
2022-07-30T03:00:16.731Z,7.05
2022-07-30T03:03:14.745Z,6.70
2022-07-30T03:06:29.675Z,6.53
2022-07-30T03:09:22.840Z,6.47
2022-07-30T03:12:45.590Z,6.57
2022-07-30T03:26:45.378Z,7.47
2022-07-30T03:30:22.961Z,6.65
2022-07-30T03:32:57.308Z,6.65
2022-07-30T03:45:53.366Z,6.60
2022-07-30T03:49:16.197Z,6.88
2022-07-30T04:12:19.126Z,6.72
2022-07-30T04:16:37.538Z,5.97
2022-07-30T04:19:15.092Z,6.20
2022-07-30T04:31:41.088Z,6.88
2022-07-30T04:34:51.017Z,5.75
2022-07-30T04:37:44.853Z,5.47
2022-07-30T04:50:52.817Z,5.68
2022-07-30T04:54:15.089Z,5.28
2022-07-30T04:57:28.022Z,5.85
2022-07-30T05:22:50.813Z,5.30
2022-07-30T05:25:47.591Z,5.55
2022-07-30T05:28:42.271Z,5.10
2022-07-30T05:44:41.548Z,5.03
2022-07-30T05:48:29.229Z,5.13
2022-07-30T06:02:16.580Z,5.22
2022-07-30T06:05:07.006Z,5.15
2022-07-30T06:08:18.375Z,5.22
2022-07-30T06:11:33.295Z,4.93
2022-07-30T06:24:49.535Z,4.82
2022-07-30T06:27:47.142Z,5.13
2022-07-30T06:30:38.667Z,5.30
2022-07-30T06:33:10.147Z,5.55
2022-07-30T06:35:41.325Z,5.32
2022-07-30T06:38:32.795Z,4.78
2022-07-30T06:41:48.094Z,4.97
2022-07-30T06:56:54.565Z,4.75
2022-07-30T07:00:34.739Z,5.43
2022-07-30T07:03:14.048Z,4.50
2022-07-30T07:06:28.139Z,5.53
2022-07-30T07:09:19.925Z,5.28
2022-07-30T07:25:16.741Z,5.18
2022-07-30T07:32:06.390Z,5.47
2022-07-30T07:35:12.185Z,5.47
2022-07-30T07:50:25.170Z,5.65
2022-07-30T07:53:16.494Z,5.63
2022-07-30T07:56:27.802Z,5.25
2022-07-30T07:59:40.930Z,5.68
2022-07-30T08:02:44.563Z,5.25
2022-07-30T08:06:05.920Z,5.30
2022-07-30T08:09:19.262Z,5.80
2022-07-30T08:26:17.565Z,5.55
2022-07-30T08:29:32.913Z,5.78
2022-07-30T08:41:06.216Z,5.72
2022-07-30T08:47:30.327Z,5.03
2022-07-30T09:03:32.407Z,4.90
2022-07-30T09:06:06.916Z,5.97
2022-07-30T09:09:20.802Z,6.15
2022-07-30T09:11:53.645Z,5.88
2022-07-30T09:28:16.142Z,5.90
2022-07-30T09:31:51.649Z,5.85
2022-07-30T09:53:17.079Z,6.07
2022-07-30T09:56:53.758Z,5.82
2022-07-30T10:00:18.572Z,5.85
2022-07-30T10:19:23.347Z,6.20
2022-07-30T10:22:27.949Z,6.45
2022-07-30T10:26:17.400Z,6.07
2022-07-30T10:30:18.072Z,6.22
2022-07-30T10:52:07.317Z,6.63
2022-07-30T10:54:48.767Z,6.80
2022-07-30T10:57:26.596Z,7.07
2022-07-30T11:00:58.647Z,8.02
2022-07-30T11:03:40.983Z,7.75
2022-07-30T11:06:24.734Z,8.68
2022-07-30T11:28:49.773Z,10.07
2022-07-30T11:32:20.929Z,10.02
2022-07-30T11:35:13.739Z,11.15
2022-07-30T11:52:01.920Z,10.75
2022-07-30T11:54:57.387Z,11.55
2022-07-30T11:58:25.816Z,10.48
2022-07-30T12:01:20.289Z,10.85
2022-07-30T12:17:01.423Z,18.40
2022-07-30T12:19:58.693Z,12.23
2022-07-30T12:22:59.663Z,12.65
2022-07-30T12:57:55.775Z,19.45
2022-07-30T13:00:55.149Z,18.55
2022-07-30T13:04:10.609Z,14.70
2022-07-30T13:23:01.984Z,14.00
2022-07-30T13:26:41.124Z,15.60
2022-07-30T13:29:16.508Z,14.95
2022-07-30T13:31:49.822Z,13.63
2022-07-30T13:44:33.405Z,13.20
2022-07-30T13:47:25.607Z,13.32
2022-07-30T13:50:37.903Z,12.63
2022-07-30T14:05:41.993Z,13.63
2022-07-30T14:08:56.336Z,12.38
2022-07-30T14:11:48.469Z,14.30
2022-07-30T14:14:20.274Z,12.60
2022-07-30T14:31:34.608Z,13.13
2022-07-30T14:34:07.206Z,12.88
2022-07-30T14:36:59.782Z,13.23
2022-07-30T14:39:33.653Z,13.20
2022-07-30T14:56:37.113Z,13.63
2022-07-30T14:59:31.746Z,12.63
2022-07-30T15:02:44.796Z,12.55
2022-07-30T15:26:40.534Z,13.77
2022-07-30T15:29:32.796Z,13.55
2022-07-30T15:32:34.222Z,12.88
2022-07-30T15:38:11.036Z,13.88
2022-07-30T15:55:17.712Z,14.50
2022-07-30T16:17:20.163Z,13.37
2022-07-30T16:20:15.912Z,12.63
2022-07-30T16:23:12.617Z,12.80
2022-07-30T16:25:47.299Z,13.20
2022-07-30T16:29:00.858Z,12.55
2022-07-30T16:51:39.642Z,12.65
2022-07-30T16:54:11.135Z,12.60
2022-07-30T16:57:10.640Z,12.45
2022-07-30T16:59:43.663Z,11.68
2022-07-30T17:02:35.230Z,12.18
2022-07-30T17:05:26.408Z,12.65
2022-07-30T17:07:58.055Z,14.23
2022-07-30T17:10:58.196Z,13.50
2022-07-30T17:13:29.431Z,12.07
2022-07-30T17:16:00.629Z,11.88
2022-07-30T17:18:51.785Z,12.73
2022-07-30T17:21:44.060Z,12.30
2022-07-30T17:24:16.139Z,12.15
2022-07-30T17:55:13.939Z,12.13
2022-07-30T17:57:45.198Z,12.68
2022-07-30T18:00:17.125Z,12.05
2022-07-30T18:02:48.336Z,12.45
2022-07-30T18:05:19.511Z,12.77
2022-07-30T18:07:50.925Z,12.35
2022-07-30T18:10:22.518Z,12.13
2022-07-30T18:15:59.624Z,12.75
2022-07-30T18:18:53.701Z,12.10
2022-07-30T18:21:25.098Z,12.27
2022-07-30T18:23:56.157Z,11.90
2022-07-30T18:26:51.745Z,11.63
2022-07-30T18:29:23.199Z,12.43
2022-07-30T18:31:54.497Z,12.20
2022-07-30T18:34:45.618Z,12.02
2022-07-30T18:37:41.403Z,12.00
2022-07-30T18:40:14.849Z,12.10
2022-07-30T18:43:06.152Z,11.65
2022-07-30T18:45:38.315Z,12.35
2022-07-30T18:48:09.672Z,12.35
2022-07-30T18:50:41.044Z,11.40
2022-07-30T18:53:15.356Z,11.90
2022-07-30T18:55:47.375Z,12.40
2022-07-30T18:58:39.812Z,11.52
2022-07-30T19:01:36.929Z,12.30
2022-07-30T19:04:10.197Z,12.07
2022-07-30T19:07:01.595Z,11.70
2022-07-30T19:12:17.246Z,11.48
2022-07-30T19:15:14.528Z,12.07
2022-07-30T19:18:18.849Z,12.77
2022-07-30T19:21:14.060Z,11.68
2022-07-30T19:52:23.706Z,11.30
2022-07-30T19:55:30.906Z,12.55
2022-07-30T19:58:30.396Z,12.45
2022-07-30T20:01:01.575Z,11.70
2022-07-30T20:03:52.732Z,11.57
2022-07-30T20:06:24.239Z,12.77
2022-07-30T20:08:55.358Z,12.38
2022-07-30T20:11:36.038Z,11.82
2022-07-30T20:14:30.793Z,10.98
2022-07-30T20:17:02.491Z,11.63
2022-07-30T20:19:36.017Z,11.43
2022-07-30T20:22:08.246Z,12.38
2022-07-30T20:24:40.249Z,11.48
2022-07-30T20:27:35.702Z,12.90
2022-07-30T20:30:27.866Z,11.43
2022-07-30T20:33:26.805Z,11.02
2022-07-30T20:36:28.535Z,12.02
2022-07-30T20:38:59.877Z,12.73
2022-07-30T20:41:51.717Z,11.77
2022-07-30T20:44:25.106Z,12.20
2022-07-30T20:46:56.415Z,11.70
2022-07-30T20:49:51.315Z,11.82
2022-07-30T20:52:46.619Z,12.25
2022-07-30T20:55:45.901Z,12.48
2022-07-30T22:26:52.152Z,10.85
2022-07-30T22:48:49.492Z,11.15
2022-07-30T22:51:21.243Z,12.52
2022-07-30T22:56:39.443Z,12.27
2022-07-30T22:59:10.682Z,12.52
2022-07-30T23:01:43.603Z,13.40
2022-07-30T23:04:15.450Z,13.68
2022-07-30T23:06:47.844Z,12.13
2022-07-30T23:09:19.110Z,12.95
2022-07-30T23:11:50.456Z,12.88
2022-07-30T23:14:25.406Z,12.95
2022-07-30T23:16:58.525Z,12.63
2022-07-30T23:19:30.024Z,12.93
2022-07-30T23:22:01.330Z,13.30
2022-07-30T23:24:32.645Z,13.93
2022-07-30T23:27:05.060Z,15.93
2022-07-30T23:29:36.626Z,16.10
2022-07-30T23:32:08.247Z,14.77
2022-07-30T23:34:39.731Z,14.20
2022-07-30T23:37:14.689Z,14.60
2022-07-30T23:39:46.272Z,14.23
2022-07-30T23:42:17.615Z,14.43
2022-07-30T23:44:48.747Z,14.80
2022-07-30T23:50:04.104Z,14.18
2022-07-30T23:52:35.575Z,14.30
2022-07-30T23:55:07.606Z,15.98
2022-07-30T23:57:40.849Z,15.55
